Juneau, AK

6:52 PM AKDT on July 30, 2016 (GMT -0800)
MesoWest | | Change Station

Elev 88 ft 58.40 °N, 134.57 °W | Updated 54 minutes ago

Overcast
Overcast
55 °F
Feels Like 55 °F
N
0
Wind Variable Wind from West
Gusts 0.0 mph

Today
High -- | Low -- °F
--% Chance of Precip.
Yesterday
High -- | Low -- °F
Precip. -- in
Pressure 30.09 in
Visibility 10.0 miles
Clouds Few 2500 ft
Mostly Cloudy 4000 ft
Overcast 4900 ft
Dew Point 50 °F
Humidity 83%
Rainfall in
Snow Depth Not available.
4:46 AM 9:21 PM
Waning Crescent, 9% visible
METAR PAJN 310153Z 29004KT 10SM FEW025 BKN040 OVC049 17/11 A3009 RMK AO2 SLP189 T01670106
Pressure 30.09 in
Visibility 10.0 miles
Clouds Few 2500 ft
Mostly Cloudy 4000 ft
Overcast 4900 ft
Dew Point 50 °F
Humidity 83%
Rainfall in
Snow Depth Not available.
4:46 AM 9:21 PM
Waning Crescent, 9% visible
METAR PAJN 310153Z 29004KT 10SM FEW025 BKN040 OVC049 17/11 A3009 RMK AO2 SLP189 T01670106

10-Day Weather Forecast

Almanac

Astronomy

Jul. 30, 2016 Rise Set
Actual Time
Civil Twilight
Nautical Twilight
Astronomical Twilight
Moon
Length of Visible Light
Length of Day
Tomorrow will be .
, % of the Moon is Illuminated

Today's Extremes

State Highs State Lows

Community

WunderPhotos

Upload Photos

1,928,715 photos uploaded!

WunderBlog® & News

Nearby

Air Quality

  Air Quality AQ Index Pollutant
Not available.

Snow Depth

Station Depth Elevation

Earthquake Activity

City Distance Mag. Time & Date
Minimum magnitude displayed is 2.5.

Coastal Water Temperatures

Place Temperature

Stations

Nearby Weather Stations

Station Location Temp. Windchill Dew Point Humidity Wind Precip. Elev Updated Type
                   

Watches & Warnings

There are currently no watches in effect.